JSR weather

Jessore Airport
Jashahor, Khulna Division, Bangladesh

Public forecast

Using degrees Celsius for public forecast. Weather courtesy of forecast.io.

METAR (pilot weather report)

Closest report is Netaji Subhash Chandra Bose International Airport, 50.7 nm (93.9 km) SW. Retrieved 2019/09/21 05:30 UTC (11 minutes ago):

VECC 210530Z 31003KT 4500 HZ SCT020 SCT025 34/26 Q1008 NOSIG

TAF (pilot weather forecast)

Forecast is more than 12 hours old.

Closest forecast is Netaji Subhash Chandra Bose International Airport, 50.7 nm (93.9 km) SW. Retrieved 2019/09/20 00:00 UTC (1 day ago):

TAF VECC 202300Z 2100/2206 00000KT 2800 HZ SCT018 BKN100 BECMG 2102/2104 20007KT 3500 HZ PROB40 TEMPO 2110/2114 2000 TSRA SCT015 FEW025CB OVC090 BECMG 2122/2124 00000KT 2800 HZ BECMG 2202/2204 20007KT 3500 HZ